sensor_id;sensor_type;location;lat;lon;timestamp;P1;durP1;ratioP1;P2;durP2;ratioP2
68072;SDS011;54862;51.502;7.446;2023-01-28T00:01:10;10.50;;;5.53;;
68072;SDS011;54862;51.502;7.446;2023-01-28T00:03:37;11.25;;;5.78;;
68072;SDS011;54862;51.502;7.446;2023-01-28T00:06:04;11.52;;;5.93;;
68072;SDS011;54862;51.502;7.446;2023-01-28T00:08:31;10.80;;;5.93;;
68072;SDS011;54862;51.502;7.446;2023-01-28T00:11:01;10.30;;;5.65;;
68072;SDS011;54862;51.502;7.446;2023-01-28T00:13:27;10.27;;;5.50;;
68072;SDS011;54862;51.502;7.446;2023-01-28T00:15:54;10.85;;;5.93;;
68072;SDS011;54862;51.502;7.446;2023-01-28T00:18:21;10.32;;;5.78;;
68072;SDS011;54862;51.502;7.446;2023-01-28T00:23:27;11.38;;;5.50;;
68072;SDS011;54862;51.502;7.446;2023-01-28T00:25:53;11.00;;;5.70;;
68072;SDS011;54862;51.502;7.446;2023-01-28T00:28:20;10.05;;;6.00;;
68072;SDS011;54862;51.502;7.446;2023-01-28T00:30:46;13.05;;;6.78;;
68072;SDS011;54862;51.502;7.446;2023-01-28T00:33:12;11.25;;;6.30;;
68072;SDS011;54862;51.502;7.446;2023-01-28T00:35:38;11.15;;;6.47;;
68072;SDS011;54862;51.502;7.446;2023-01-28T00:38:04;14.30;;;6.35;;
68072;SDS011;54862;51.502;7.446;2023-01-28T00:40:30;12.00;;;6.22;;
68072;SDS011;54862;51.502;7.446;2023-01-28T00:42:56;10.50;;;5.68;;
68072;SDS011;54862;51.502;7.446;2023-01-28T00:45:22;10.85;;;6.13;;
68072;SDS011;54862;51.502;7.446;2023-01-28T00:47:48;11.43;;;6.70;;
68072;SDS011;54862;51.502;7.446;2023-01-28T00:50:14;11.52;;;6.05;;
68072;SDS011;54862;51.502;7.446;2023-01-28T00:52:40;13.55;;;6.97;;
68072;SDS011;54862;51.502;7.446;2023-01-28T00:55:06;10.88;;;6.05;;
68072;SDS011;54862;51.502;7.446;2023-01-28T00:57:32;11.13;;;5.93;;
68072;SDS011;54862;51.502;7.446;2023-01-28T00:59:58;12.48;;;5.70;;
68072;SDS011;54862;51.502;7.446;2023-01-28T01:02:24;12.60;;;5.97;;
68072;SDS011;54862;51.502;7.446;2023-01-28T01:04:51;12.90;;;7.00;;
68072;SDS011;54862;51.502;7.446;2023-01-28T01:07:23;15.30;;;6.95;;
68072;SDS011;54862;51.502;7.446;2023-01-28T01:10:10;13.02;;;7.30;;
68072;SDS011;54862;51.502;7.446;2023-01-28T01:12:37;12.32;;;7.28;;
68072;SDS011;54862;51.502;7.446;2023-01-28T01:15:03;12.10;;;6.38;;
68072;SDS011;54862;51.502;7.446;2023-01-28T01:17:32;13.65;;;6.95;;
68072;SDS011;54862;51.502;7.446;2023-01-28T01:19:58;11.73;;;6.32;;
68072;SDS011;54862;51.502;7.446;2023-01-28T01:22:24;13.45;;;6.03;;
68072;SDS011;54862;51.502;7.446;2023-01-28T01:24:50;10.93;;;5.93;;
68072;SDS011;54862;51.502;7.446;2023-01-28T01:27:16;9.85;;;5.85;;
68072;SDS011;54862;51.502;7.446;2023-01-28T01:29:42;10.60;;;5.60;;
68072;SDS011;54862;51.502;7.446;2023-01-28T01:32:08;10.82;;;6.03;;
68072;SDS011;54862;51.502;7.446;2023-01-28T01:34:34;11.35;;;6.22;;
68072;SDS011;54862;51.502;7.446;2023-01-28T01:37:00;12.38;;;6.22;;
68072;SDS011;54862;51.502;7.446;2023-01-28T01:39:27;10.80;;;6.28;;
68072;SDS011;54862;51.502;7.446;2023-01-28T01:41:53;10.20;;;5.68;;
68072;SDS011;54862;51.502;7.446;2023-01-28T01:47:04;10.85;;;5.68;;
68072;SDS011;54862;51.502;7.446;2023-01-28T01:49:30;9.80;;;5.57;;
68072;SDS011;54862;51.502;7.446;2023-01-28T01:52:00;10.10;;;5.55;;
68072;SDS011;54862;51.502;7.446;2023-01-28T01:54:28;9.98;;;5.75;;
68072;SDS011;54862;51.502;7.446;2023-01-28T01:56:54;10.07;;;5.65;;
68072;SDS011;54862;51.502;7.446;2023-01-28T01:59:21;10.68;;;6.03;;
68072;SDS011;54862;51.502;7.446;2023-01-28T02:01:49;9.95;;;5.32;;
68072;SDS011;54862;51.502;7.446;2023-01-28T02:04:24;9.95;;;5.65;;
68072;SDS011;54862;51.502;7.446;2023-01-28T02:06:51;9.82;;;5.80;;
68072;SDS011;54862;51.502;7.446;2023-01-28T02:09:24;9.90;;;5.30;;
68072;SDS011;54862;51.502;7.446;2023-01-28T02:14:16;10.13;;;5.38;;
68072;SDS011;54862;51.502;7.446;2023-01-28T02:16:42;10.18;;;5.68;;
68072;SDS011;54862;51.502;7.446;2023-01-28T02:19:08;12.80;;;5.45;;
68072;SDS011;54862;51.502;7.446;2023-01-28T02:26:55;9.95;;;5.55;;
68072;SDS011;54862;51.502;7.446;2023-01-28T02:32:09;12.88;;;5.80;;
68072;SDS011;54862;51.502;7.446;2023-01-28T02:34:39;11.20;;;5.82;;
68072;SDS011;54862;51.502;7.446;2023-01-28T02:39:59;10.90;;;5.88;;
68072;SDS011;54862;51.502;7.446;2023-01-28T02:42:27;11.45;;;5.90;;
68072;SDS011;54862;51.502;7.446;2023-01-28T02:44:54;10.65;;;6.15;;
68072;SDS011;54862;51.502;7.446;2023-01-28T02:47:20;12.30;;;6.55;;
68072;SDS011;54862;51.502;7.446;2023-01-28T02:50:09;10.00;;;5.35;;
68072;SDS011;54862;51.502;7.446;2023-01-28T02:52:57;11.80;;;6.75;;
68072;SDS011;54862;51.502;7.446;2023-01-28T02:55:52;12.18;;;6.35;;
68072;SDS011;54862;51.502;7.446;2023-01-28T03:01:15;13.07;;;5.30;;
68072;SDS011;54862;51.502;7.446;2023-01-28T03:06:19;12.35;;;6.10;;
68072;SDS011;54862;51.502;7.446;2023-01-28T03:08:48;10.85;;;5.63;;
68072;SDS011;54862;51.502;7.446;2023-01-28T03:11:35;10.05;;;5.28;;
68072;SDS011;54862;51.502;7.446;2023-01-28T03:14:21;11.10;;;6.30;;
68072;SDS011;54862;51.502;7.446;2023-01-28T03:17:07;13.32;;;6.95;;
68072;SDS011;54862;51.502;7.446;2023-01-28T03:19:55;13.93;;;7.28;;
68072;SDS011;54862;51.502;7.446;2023-01-28T03:22:40;11.82;;;6.90;;
68072;SDS011;54862;51.502;7.446;2023-01-28T03:25:26;13.43;;;6.50;;
68072;SDS011;54862;51.502;7.446;2023-01-28T03:28:11;10.98;;;6.18;;
68072;SDS011;54862;51.502;7.446;2023-01-28T03:31:02;13.55;;;6.40;;
68072;SDS011;54862;51.502;7.446;2023-01-28T03:33:48;11.90;;;6.40;;
68072;SDS011;54862;51.502;7.446;2023-01-28T03:36:34;10.85;;;5.85;;
68072;SDS011;54862;51.502;7.446;2023-01-28T03:39:13;11.30;;;6.20;;
68072;SDS011;54862;51.502;7.446;2023-01-28T03:41:39;11.38;;;6.32;;
68072;SDS011;54862;51.502;7.446;2023-01-28T03:44:06;10.73;;;6.18;;
68072;SDS011;54862;51.502;7.446;2023-01-28T03:46:51;12.15;;;6.90;;
68072;SDS011;54862;51.502;7.446;2023-01-28T03:49:17;14.43;;;6.82;;
68072;SDS011;54862;51.502;7.446;2023-01-28T03:51:43;11.25;;;6.55;;
68072;SDS011;54862;51.502;7.446;2023-01-28T03:54:10;12.23;;;6.88;;
68072;SDS011;54862;51.502;7.446;2023-01-28T03:56:36;11.32;;;6.63;;
68072;SDS011;54862;51.502;7.446;2023-01-28T03:59:04;16.02;;;7.80;;
68072;SDS011;54862;51.502;7.446;2023-01-28T04:01:30;14.68;;;7.55;;
68072;SDS011;54862;51.502;7.446;2023-01-28T04:03:56;14.40;;;8.32;;
68072;SDS011;54862;51.502;7.446;2023-01-28T04:06:22;14.70;;;8.10;;
68072;SDS011;54862;51.502;7.446;2023-01-28T04:08:48;15.65;;;8.23;;
68072;SDS011;54862;51.502;7.446;2023-01-28T04:11:17;13.73;;;7.95;;
68072;SDS011;54862;51.502;7.446;2023-01-28T04:13:45;15.15;;;7.75;;
68072;SDS011;54862;51.502;7.446;2023-01-28T04:16:12;14.15;;;7.88;;
68072;SDS011;54862;51.502;7.446;2023-01-28T04:18:38;14.27;;;8.15;;
68072;SDS011;54862;51.502;7.446;2023-01-28T04:21:04;13.20;;;7.30;;
68072;SDS011;54862;51.502;7.446;2023-01-28T04:23:30;11.98;;;7.40;;
68072;SDS011;54862;51.502;7.446;2023-01-28T04:25:56;13.30;;;7.57;;
68072;SDS011;54862;51.502;7.446;2023-01-28T04:28:22;11.82;;;7.03;;
68072;SDS011;54862;51.502;7.446;2023-01-28T04:30:48;11.73;;;7.07;;
68072;SDS011;54862;51.502;7.446;2023-01-28T04:33:14;13.98;;;7.00;;
68072;SDS011;54862;51.502;7.446;2023-01-28T04:35:40;13.75;;;7.20;;
68072;SDS011;54862;51.502;7.446;2023-01-28T04:38:06;12.77;;;7.05;;
68072;SDS011;54862;51.502;7.446;2023-01-28T04:40:32;12.88;;;6.90;;
68072;SDS011;54862;51.502;7.446;2023-01-28T04:42:58;14.30;;;7.15;;
68072;SDS011;54862;51.502;7.446;2023-01-28T04:45:24;14.68;;;7.90;;
68072;SDS011;54862;51.502;7.446;2023-01-28T04:47:50;12.15;;;6.68;;
68072;SDS011;54862;51.502;7.446;2023-01-28T04:50:16;11.27;;;6.55;;
68072;SDS011;54862;51.502;7.446;2023-01-28T04:52:42;11.60;;;6.55;;
68072;SDS011;54862;51.502;7.446;2023-01-28T04:55:09;11.25;;;6.43;;
68072;SDS011;54862;51.502;7.446;2023-01-28T04:57:35;12.55;;;6.70;;
68072;SDS011;54862;51.502;7.446;2023-01-28T05:00:01;13.07;;;6.43;;
68072;SDS011;54862;51.502;7.446;2023-01-28T05:02:28;12.85;;;7.85;;
68072;SDS011;54862;51.502;7.446;2023-01-28T05:04:54;14.93;;;8.13;;
68072;SDS011;54862;51.502;7.446;2023-01-28T05:07:20;16.67;;;8.48;;
68072;SDS011;54862;51.502;7.446;2023-01-28T05:09:46;15.45;;;8.00;;
68072;SDS011;54862;51.502;7.446;2023-01-28T05:12:12;14.95;;;8.10;;
68072;SDS011;54862;51.502;7.446;2023-01-28T05:14:38;16.33;;;7.68;;
68072;SDS011;54862;51.502;7.446;2023-01-28T05:17:04;13.65;;;7.38;;
68072;SDS011;54862;51.502;7.446;2023-01-28T05:19:30;13.45;;;7.15;;
68072;SDS011;54862;51.502;7.446;2023-01-28T05:21:56;17.25;;;8.80;;
68072;SDS011;54862;51.502;7.446;2023-01-28T05:24:22;17.23;;;9.52;;
68072;SDS011;54862;51.502;7.446;2023-01-28T05:26:47;19.38;;;9.75;;
68072;SDS011;54862;51.502;7.446;2023-01-28T05:29:13;18.83;;;9.93;;
68072;SDS011;54862;51.502;7.446;2023-01-28T05:31:39;18.05;;;9.48;;
68072;SDS011;54862;51.502;7.446;2023-01-28T05:34:05;16.25;;;8.75;;
68072;SDS011;54862;51.502;7.446;2023-01-28T05:36:32;16.45;;;8.52;;
68072;SDS011;54862;51.502;7.446;2023-01-28T05:38:58;15.75;;;8.48;;
68072;SDS011;54862;51.502;7.446;2023-01-28T05:41:24;15.60;;;8.52;;
68072;SDS011;54862;51.502;7.446;2023-01-28T05:43:50;14.88;;;8.02;;
68072;SDS011;54862;51.502;7.446;2023-01-28T05:46:16;13.82;;;8.38;;
68072;SDS011;54862;51.502;7.446;2023-01-28T05:48:42;14.18;;;6.65;;
68072;SDS011;54862;51.502;7.446;2023-01-28T05:51:09;12.82;;;6.72;;
68072;SDS011;54862;51.502;7.446;2023-01-28T05:53:35;14.43;;;6.68;;
68072;SDS011;54862;51.502;7.446;2023-01-28T05:56:01;12.43;;;6.55;;
68072;SDS011;54862;51.502;7.446;2023-01-28T05:58:27;14.07;;;6.50;;
68072;SDS011;54862;51.502;7.446;2023-01-28T06:00:56;11.45;;;6.95;;
68072;SDS011;54862;51.502;7.446;2023-01-28T06:03:22;12.45;;;7.25;;
68072;SDS011;54862;51.502;7.446;2023-01-28T06:05:48;13.50;;;7.97;;
68072;SDS011;54862;51.502;7.446;2023-01-28T06:08:14;13.80;;;8.13;;
68072;SDS011;54862;51.502;7.446;2023-01-28T06:10:40;14.40;;;8.15;;
68072;SDS011;54862;51.502;7.446;2023-01-28T06:13:06;13.85;;;8.13;;
68072;SDS011;54862;51.502;7.446;2023-01-28T06:15:32;12.27;;;7.43;;
68072;SDS011;54862;51.502;7.446;2023-01-28T06:17:58;13.23;;;6.70;;
68072;SDS011;54862;51.502;7.446;2023-01-28T06:20:24;11.70;;;6.78;;
68072;SDS011;54862;51.502;7.446;2023-01-28T06:22:50;11.65;;;6.57;;
68072;SDS011;54862;51.502;7.446;2023-01-28T06:25:17;14.85;;;6.95;;
68072;SDS011;54862;51.502;7.446;2023-01-28T06:27:43;14.13;;;7.45;;
68072;SDS011;54862;51.502;7.446;2023-01-28T06:30:09;12.48;;;6.95;;
68072;SDS011;54862;51.502;7.446;2023-01-28T06:32:35;12.18;;;6.07;;
68072;SDS011;54862;51.502;7.446;2023-01-28T06:35:01;12.43;;;6.60;;
68072;SDS011;54862;51.502;7.446;2023-01-28T06:37:27;12.50;;;6.72;;
68072;SDS011;54862;51.502;7.446;2023-01-28T06:39:53;12.27;;;7.13;;
68072;SDS011;54862;51.502;7.446;2023-01-28T06:42:19;13.93;;;7.30;;
68072;SDS011;54862;51.502;7.446;2023-01-28T06:44:45;13.15;;;6.90;;
68072;SDS011;54862;51.502;7.446;2023-01-28T06:47:11;11.55;;;6.43;;
68072;SDS011;54862;51.502;7.446;2023-01-28T06:49:38;12.35;;;6.22;;
68072;SDS011;54862;51.502;7.446;2023-01-28T06:52:04;11.63;;;6.13;;
68072;SDS011;54862;51.502;7.446;2023-01-28T06:54:30;11.88;;;6.32;;
68072;SDS011;54862;51.502;7.446;2023-01-28T06:56:56;11.15;;;6.45;;
68072;SDS011;54862;51.502;7.446;2023-01-28T06:59:22;12.75;;;6.38;;
68072;SDS011;54862;51.502;7.446;2023-01-28T07:01:48;12.88;;;6.68;;
68072;SDS011;54862;51.502;7.446;2023-01-28T07:04:14;11.13;;;6.25;;
68072;SDS011;54862;51.502;7.446;2023-01-28T07:06:40;10.38;;;5.70;;
68072;SDS011;54862;51.502;7.446;2023-01-28T07:09:06;12.27;;;5.70;;
68072;SDS011;54862;51.502;7.446;2023-01-28T07:11:32;11.20;;;5.85;;
68072;SDS011;54862;51.502;7.446;2023-01-28T07:13:58;12.30;;;5.82;;
68072;SDS011;54862;51.502;7.446;2023-01-28T07:16:25;10.02;;;5.97;;
68072;SDS011;54862;51.502;7.446;2023-01-28T07:18:51;10.70;;;6.10;;
68072;SDS011;54862;51.502;7.446;2023-01-28T07:21:17;9.20;;;5.45;;
68072;SDS011;54862;51.502;7.446;2023-01-28T07:23:43;10.48;;;5.57;;
68072;SDS011;54862;51.502;7.446;2023-01-28T07:26:09;11.82;;;5.90;;
68072;SDS011;54862;51.502;7.446;2023-01-28T07:28:34;9.98;;;5.40;;
68072;SDS011;54862;51.502;7.446;2023-01-28T07:31:00;11.88;;;5.95;;
68072;SDS011;54862;51.502;7.446;2023-01-28T07:33:26;11.18;;;6.40;;
68072;SDS011;54862;51.502;7.446;2023-01-28T07:35:52;10.38;;;5.47;;
68072;SDS011;54862;51.502;7.446;2023-01-28T07:38:18;10.93;;;5.68;;
68072;SDS011;54862;51.502;7.446;2023-01-28T07:40:45;10.43;;;5.25;;
68072;SDS011;54862;51.502;7.446;2023-01-28T07:43:11;9.60;;;5.00;;
68072;SDS011;54862;51.502;7.446;2023-01-28T07:45:37;9.77;;;5.13;;
68072;SDS011;54862;51.502;7.446;2023-01-28T07:48:04;9.38;;;5.40;;
68072;SDS011;54862;51.502;7.446;2023-01-28T07:50:31;10.40;;;5.85;;
68072;SDS011;54862;51.502;7.446;2023-01-28T07:52:58;9.18;;;5.25;;
68072;SDS011;54862;51.502;7.446;2023-01-28T07:55:24;12.95;;;6.25;;
68072;SDS011;54862;51.502;7.446;2023-01-28T07:57:51;8.98;;;5.22;;
68072;SDS011;54862;51.502;7.446;2023-01-28T08:00:18;9.45;;;5.60;;
68072;SDS011;54862;51.502;7.446;2023-01-28T08:02:44;12.02;;;5.80;;
68072;SDS011;54862;51.502;7.446;2023-01-28T08:05:12;11.93;;;5.75;;
68072;SDS011;54862;51.502;7.446;2023-01-28T08:07:38;12.45;;;5.93;;
68072;SDS011;54862;51.502;7.446;2023-01-28T08:10:04;10.30;;;5.65;;
68072;SDS011;54862;51.502;7.446;2023-01-28T08:12:30;9.82;;;5.00;;
68072;SDS011;54862;51.502;7.446;2023-01-28T08:14:56;9.10;;;4.72;;
68072;SDS011;54862;51.502;7.446;2023-01-28T08:17:22;13.45;;;5.30;;
68072;SDS011;54862;51.502;7.446;2023-01-28T08:19:48;11.05;;;5.35;;
68072;SDS011;54862;51.502;7.446;2023-01-28T08:22:14;10.82;;;5.10;;
68072;SDS011;54862;51.502;7.446;2023-01-28T08:24:40;10.32;;;6.22;;
68072;SDS011;54862;51.502;7.446;2023-01-28T08:27:06;9.75;;;5.82;;
68072;SDS011;54862;51.502;7.446;2023-01-28T08:29:32;13.57;;;5.72;;
68072;SDS011;54862;51.502;7.446;2023-01-28T08:31:58;11.80;;;6.28;;
68072;SDS011;54862;51.502;7.446;2023-01-28T08:34:24;11.32;;;5.80;;
68072;SDS011;54862;51.502;7.446;2023-01-28T08:36:50;10.20;;;5.65;;
68072;SDS011;54862;51.502;7.446;2023-01-28T08:39:16;10.38;;;5.47;;
68072;SDS011;54862;51.502;7.446;2023-01-28T08:41:42;10.63;;;6.03;;
68072;SDS011;54862;51.502;7.446;2023-01-28T08:44:08;9.88;;;5.63;;
68072;SDS011;54862;51.502;7.446;2023-01-28T08:46:34;11.68;;;5.88;;
68072;SDS011;54862;51.502;7.446;2023-01-28T08:49:00;11.95;;;5.82;;
68072;SDS011;54862;51.502;7.446;2023-01-28T08:51:26;11.40;;;5.88;;
68072;SDS011;54862;51.502;7.446;2023-01-28T08:53:52;12.45;;;6.00;;
68072;SDS011;54862;51.502;7.446;2023-01-28T08:56:18;15.80;;;7.00;;
68072;SDS011;54862;51.502;7.446;2023-01-28T08:58:44;11.82;;;6.03;;
68072;SDS011;54862;51.502;7.446;2023-01-28T09:01:10;10.40;;;6.25;;
68072;SDS011;54862;51.502;7.446;2023-01-28T09:03:36;12.52;;;6.07;;
68072;SDS011;54862;51.502;7.446;2023-01-28T09:06:03;9.77;;;5.72;;
68072;SDS011;54862;51.502;7.446;2023-01-28T09:08:29;13.38;;;5.57;;
68072;SDS011;54862;51.502;7.446;2023-01-28T09:10:55;11.00;;;6.18;;
68072;SDS011;54862;51.502;7.446;2023-01-28T09:13:22;14.10;;;7.10;;
68072;SDS011;54862;51.502;7.446;2023-01-28T09:15:48;14.10;;;7.07;;
68072;SDS011;54862;51.502;7.446;2023-01-28T09:18:15;13.90;;;6.75;;
68072;SDS011;54862;51.502;7.446;2023-01-28T09:20:41;12.35;;;6.97;;
68072;SDS011;54862;51.502;7.446;2023-01-28T09:23:08;14.77;;;7.32;;
68072;SDS011;54862;51.502;7.446;2023-01-28T09:25:34;11.85;;;6.05;;
68072;SDS011;54862;51.502;7.446;2023-01-28T09:28:01;14.02;;;6.85;;
68072;SDS011;54862;51.502;7.446;2023-01-28T09:30:27;12.95;;;7.13;;
68072;SDS011;54862;51.502;7.446;2023-01-28T09:32:54;13.82;;;7.57;;
68072;SDS011;54862;51.502;7.446;2023-01-28T09:35:20;19.70;;;8.98;;
68072;SDS011;54862;51.502;7.446;2023-01-28T09:37:47;21.92;;;10.07;;
68072;SDS011;54862;51.502;7.446;2023-01-28T09:40:16;28.35;;;11.32;;
68072;SDS011;54862;51.502;7.446;2023-01-28T09:42:46;16.13;;;8.18;;
68072;SDS011;54862;51.502;7.446;2023-01-28T09:45:18;15.05;;;7.72;;
68072;SDS011;54862;51.502;7.446;2023-01-28T09:47:47;15.73;;;8.38;;
68072;SDS011;54862;51.502;7.446;2023-01-28T09:50:37;16.52;;;7.47;;
68072;SDS011;54862;51.502;7.446;2023-01-28T09:53:22;14.55;;;6.88;;
68072;SDS011;54862;51.502;7.446;2023-01-28T09:55:49;15.55;;;7.68;;
68072;SDS011;54862;51.502;7.446;2023-01-28T09:58:16;14.38;;;7.07;;
68072;SDS011;54862;51.502;7.446;2023-01-28T10:05:48;13.80;;;7.57;;
68072;SDS011;54862;51.502;7.446;2023-01-28T10:13:51;13.18;;;6.32;;
68072;SDS011;54862;51.502;7.446;2023-01-28T10:21:20;14.82;;;7.72;;
68072;SDS011;54862;51.502;7.446;2023-01-28T10:26:15;17.13;;;8.85;;
68072;SDS011;54862;51.502;7.446;2023-01-28T10:28:45;16.60;;;8.40;;
68072;SDS011;54862;51.502;7.446;2023-01-28T10:31:14;17.80;;;9.90;;
68072;SDS011;54862;51.502;7.446;2023-01-28T10:33:40;15.15;;;8.27;;
68072;SDS011;54862;51.502;7.446;2023-01-28T10:36:06;14.73;;;7.10;;
68072;SDS011;54862;51.502;7.446;2023-01-28T10:38:32;15.15;;;8.52;;
68072;SDS011;54862;51.502;7.446;2023-01-28T10:40:59;13.25;;;7.18;;
68072;SDS011;54862;51.502;7.446;2023-01-28T10:43:29;16.30;;;8.23;;
68072;SDS011;54862;51.502;7.446;2023-01-28T10:46:03;13.95;;;7.03;;
68072;SDS011;54862;51.502;7.446;2023-01-28T10:48:33;12.25;;;6.30;;
68072;SDS011;54862;51.502;7.446;2023-01-28T10:51:02;10.65;;;6.10;;
68072;SDS011;54862;51.502;7.446;2023-01-28T10:53:42;13.05;;;6.50;;
68072;SDS011;54862;51.502;7.446;2023-01-28T10:56:15;21.67;;;11.18;;
68072;SDS011;54862;51.502;7.446;2023-01-28T10:58:53;29.80;;;12.73;;
68072;SDS011;54862;51.502;7.446;2023-01-28T11:01:22;37.90;;;14.30;;
68072;SDS011;54862;51.502;7.446;2023-01-28T11:03:55;33.60;;;14.40;;
68072;SDS011;54862;51.502;7.446;2023-01-28T11:06:24;24.58;;;11.77;;
68072;SDS011;54862;51.502;7.446;2023-01-28T11:08:50;33.92;;;14.15;;
68072;SDS011;54862;51.502;7.446;2023-01-28T11:11:21;29.80;;;12.93;;
68072;SDS011;54862;51.502;7.446;2023-01-28T11:13:49;26.75;;;11.55;;
68072;SDS011;54862;51.502;7.446;2023-01-28T11:16:16;28.85;;;12.95;;
68072;SDS011;54862;51.502;7.446;2023-01-28T11:18:52;26.17;;;11.20;;
68072;SDS011;54862;51.502;7.446;2023-01-28T11:23:49;24.35;;;11.70;;
68072;SDS011;54862;51.502;7.446;2023-01-28T11:26:17;22.20;;;10.48;;
68072;SDS011;54862;51.502;7.446;2023-01-28T11:28:44;21.85;;;10.48;;
68072;SDS011;54862;51.502;7.446;2023-01-28T11:31:14;19.17;;;9.60;;
68072;SDS011;54862;51.502;7.446;2023-01-28T11:41:31;18.45;;;9.45;;
68072;SDS011;54862;51.502;7.446;2023-01-28T11:43:58;19.10;;;9.68;;
68072;SDS011;54862;51.502;7.446;2023-01-28T11:51:42;14.70;;;8.27;;
68072;SDS011;54862;51.502;7.446;2023-01-28T12:04:22;18.73;;;10.15;;
68072;SDS011;54862;51.502;7.446;2023-01-28T12:11:56;16.20;;;7.90;;
68072;SDS011;54862;51.502;7.446;2023-01-28T12:17:07;16.05;;;8.90;;
68072;SDS011;54862;51.502;7.446;2023-01-28T12:22:11;17.52;;;8.82;;
68072;SDS011;54862;51.502;7.446;2023-01-28T12:25:02;18.80;;;9.90;;
68072;SDS011;54862;51.502;7.446;2023-01-28T12:27:41;22.65;;;9.82;;
68072;SDS011;54862;51.502;7.446;2023-01-28T12:30:13;22.13;;;10.48;;
68072;SDS011;54862;51.502;7.446;2023-01-28T12:42:41;15.82;;;7.88;;
68072;SDS011;54862;51.502;7.446;2023-01-28T12:47:36;17.60;;;9.40;;
68072;SDS011;54862;51.502;7.446;2023-01-28T12:51:07;15.32;;;8.93;;
68072;SDS011;54862;51.502;7.446;2023-01-28T12:53:01;14.82;;;7.88;;
68072;SDS011;54862;51.502;7.446;2023-01-28T12:55:36;16.70;;;9.57;;
68072;SDS011;54862;51.502;7.446;2023-01-28T12:58:04;15.20;;;8.45;;
68072;SDS011;54862;51.502;7.446;2023-01-28T13:00:44;16.33;;;8.63;;
68072;SDS011;54862;51.502;7.446;2023-01-28T13:03:16;17.40;;;9.20;;
68072;SDS011;54862;51.502;7.446;2023-01-28T13:05:47;15.43;;;9.20;;
68072;SDS011;54862;51.502;7.446;2023-01-28T13:08:16;16.58;;;9.68;;
68072;SDS011;54862;51.502;7.446;2023-01-28T13:10:45;15.95;;;8.68;;
68072;SDS011;54862;51.502;7.446;2023-01-28T13:13:19;16.05;;;9.50;;
68072;SDS011;54862;51.502;7.446;2023-01-28T13:15:50;14.48;;;8.18;;
68072;SDS011;54862;51.502;7.446;2023-01-28T13:21:02;16.40;;;8.65;;
68072;SDS011;54862;51.502;7.446;2023-01-28T13:25:56;17.42;;;8.95;;
68072;SDS011;54862;51.502;7.446;2023-01-28T13:28:29;14.98;;;9.30;;
68072;SDS011;54862;51.502;7.446;2023-01-28T13:31:00;14.77;;;8.82;;
68072;SDS011;54862;51.502;7.446;2023-01-28T13:33:28;18.17;;;8.95;;
68072;SDS011;54862;51.502;7.446;2023-01-28T13:35:54;14.80;;;9.10;;
68072;SDS011;54862;51.502;7.446;2023-01-28T13:38:21;16.27;;;9.00;;
68072;SDS011;54862;51.502;7.446;2023-01-28T13:40:55;16.10;;;9.55;;
68072;SDS011;54862;51.502;7.446;2023-01-28T13:43:25;16.08;;;9.10;;
68072;SDS011;54862;51.502;7.446;2023-01-28T13:45:58;14.95;;;8.98;;
68072;SDS011;54862;51.502;7.446;2023-01-28T13:48:30;14.98;;;8.68;;
68072;SDS011;54862;51.502;7.446;2023-01-28T13:50:57;15.98;;;9.10;;
68072;SDS011;54862;51.502;7.446;2023-01-28T13:55:54;17.77;;;9.50;;
68072;SDS011;54862;51.502;7.446;2023-01-28T14:11:12;24.98;;;11.57;;
68072;SDS011;54862;51.502;7.446;2023-01-28T14:18:59;17.10;;;8.82;;
68072;SDS011;54862;51.502;7.446;2023-01-28T14:21:26;18.52;;;9.27;;
68072;SDS011;54862;51.502;7.446;2023-01-28T14:23:54;17.65;;;8.90;;
68072;SDS011;54862;51.502;7.446;2023-01-28T14:27:21;16.80;;;9.63;;
68072;SDS011;54862;51.502;7.446;2023-01-28T14:29:22;20.48;;;9.40;;
68072;SDS011;54862;51.502;7.446;2023-01-28T14:31:50;17.65;;;9.55;;
68072;SDS011;54862;51.502;7.446;2023-01-28T14:34:34;15.88;;;9.05;;
68072;SDS011;54862;51.502;7.446;2023-01-28T14:37:23;18.05;;;9.40;;
68072;SDS011;54862;51.502;7.446;2023-01-28T14:39:49;18.38;;;9.60;;
68072;SDS011;54862;51.502;7.446;2023-01-28T14:42:18;16.35;;;9.27;;
68072;SDS011;54862;51.502;7.446;2023-01-28T14:44:45;16.30;;;9.05;;
68072;SDS011;54862;51.502;7.446;2023-01-28T14:55:28;21.90;;;10.32;;
68072;SDS011;54862;51.502;7.446;2023-01-28T14:58:04;21.80;;;11.55;;
68072;SDS011;54862;51.502;7.446;2023-01-28T15:00:32;21.20;;;11.20;;
68072;SDS011;54862;51.502;7.446;2023-01-28T15:02:58;19.75;;;10.90;;
68072;SDS011;54862;51.502;7.446;2023-01-28T15:05:25;20.80;;;11.32;;
68072;SDS011;54862;51.502;7.446;2023-01-28T15:07:52;19.48;;;10.55;;
68072;SDS011;54862;51.502;7.446;2023-01-28T15:10:20;19.23;;;10.13;;
68072;SDS011;54862;51.502;7.446;2023-01-28T15:13:12;19.27;;;10.13;;
68072;SDS011;54862;51.502;7.446;2023-01-28T15:15:40;17.80;;;10.02;;
68072;SDS011;54862;51.502;7.446;2023-01-28T15:18:17;18.60;;;10.63;;
68072;SDS011;54862;51.502;7.446;2023-01-28T15:20:46;17.42;;;9.57;;
68072;SDS011;54862;51.502;7.446;2023-01-28T15:23:14;19.30;;;10.57;;
68072;SDS011;54862;51.502;7.446;2023-01-28T15:25:40;17.27;;;9.65;;
68072;SDS011;54862;51.502;7.446;2023-01-28T15:28:08;20.10;;;11.27;;
68072;SDS011;54862;51.502;7.446;2023-01-28T15:30:43;18.38;;;10.48;;
68072;SDS011;54862;51.502;7.446;2023-01-28T15:33:12;17.45;;;10.20;;
68072;SDS011;54862;51.502;7.446;2023-01-28T15:35:44;21.67;;;11.38;;
68072;SDS011;54862;51.502;7.446;2023-01-28T15:38:11;18.55;;;10.23;;
68072;SDS011;54862;51.502;7.446;2023-01-28T15:40:41;21.77;;;11.73;;
68072;SDS011;54862;51.502;7.446;2023-01-28T15:43:14;22.15;;;11.65;;
68072;SDS011;54862;51.502;7.446;2023-01-28T15:45:43;18.85;;;10.63;;
68072;SDS011;54862;51.502;7.446;2023-01-28T15:48:09;18.80;;;11.00;;
68072;SDS011;54862;51.502;7.446;2023-01-28T15:50:36;22.10;;;10.88;;
68072;SDS011;54862;51.502;7.446;2023-01-28T15:53:02;22.05;;;10.85;;
68072;SDS011;54862;51.502;7.446;2023-01-28T15:55:34;20.05;;;10.55;;
68072;SDS011;54862;51.502;7.446;2023-01-28T16:00:36;19.27;;;10.43;;
68072;SDS011;54862;51.502;7.446;2023-01-28T16:03:06;19.75;;;10.73;;
68072;SDS011;54862;51.502;7.446;2023-01-28T16:05:34;21.67;;;11.10;;
68072;SDS011;54862;51.502;7.446;2023-01-28T16:08:01;21.13;;;11.55;;
68072;SDS011;54862;51.502;7.446;2023-01-28T16:10:28;23.63;;;11.65;;
68072;SDS011;54862;51.502;7.446;2023-01-28T16:12:57;21.80;;;11.73;;
68072;SDS011;54862;51.502;7.446;2023-01-28T16:15:28;22.67;;;11.27;;
68072;SDS011;54862;51.502;7.446;2023-01-28T16:17:54;24.88;;;11.57;;
68072;SDS011;54862;51.502;7.446;2023-01-28T16:20:21;22.45;;;10.82;;
68072;SDS011;54862;51.502;7.446;2023-01-28T16:22:48;26.85;;;11.43;;
68072;SDS011;54862;51.502;7.446;2023-01-28T16:27:46;19.92;;;9.65;;
68072;SDS011;54862;51.502;7.446;2023-01-28T16:30:13;23.15;;;11.25;;
68072;SDS011;54862;51.502;7.446;2023-01-28T16:32:39;25.20;;;10.88;;
68072;SDS011;54862;51.502;7.446;2023-01-28T16:37:38;22.23;;;10.33;;
68072;SDS011;54862;51.502;7.446;2023-01-28T16:40:05;22.92;;;10.75;;
68072;SDS011;54862;51.502;7.446;2023-01-28T16:42:31;23.88;;;11.43;;
68072;SDS011;54862;51.502;7.446;2023-01-28T16:44:57;25.25;;;11.25;;
68072;SDS011;54862;51.502;7.446;2023-01-28T16:47:23;24.63;;;10.93;;
68072;SDS011;54862;51.502;7.446;2023-01-28T16:49:50;20.63;;;10.60;;
68072;SDS011;54862;51.502;7.446;2023-01-28T16:52:16;21.52;;;10.38;;
68072;SDS011;54862;51.502;7.446;2023-01-28T16:54:42;24.05;;;10.82;;